Time;durP1;ratioP1;P1;durP2;ratioP2;P2;SDS_P1;SDS_P2;PMS_P1;PMS_P2;Temp;Humidity;BMP_temperature;BMP_pressure;BME280_temperature;BME280_humidity;BME280_pressure;Samples;Min_cycle;Max_cycle;Signal;HPM_P1;HPM_P2
2021/06/10 00:00:29;;;;;;;20.47;18.57;;;;;;;21.99;47.77;101697.47;5038542;28;20387;-66
2021/06/10 00:02:54;;;;;;;19.80;17.90;;;;;;;22.21;47.45;101696.03;5041418;28;20465;-67
2021/06/10 00:05:21;;;;;;;24.30;21.90;;;;;;;22.05;47.92;101694.66;5038462;28;20532;-67
2021/06/10 00:07:48;;;;;;;15.37;13.60;;;;;;;22.00;48.09;101689.47;5039024;28;20209;-66
2021/06/10 00:10:15;;;;;;;17.50;12.90;;;;;;;22.28;47.13;101693.25;5038649;28;20539;-66
2021/06/10 00:12:41;;;;;;;19.03;17.07;;;;;;;22.11;47.36;101697.19;5039345;28;20499;-66
2021/06/10 00:15:09;;;;;;;14.70;13.40;;;;;;;22.18;47.25;101689.94;5038764;28;20379;-67
2021/06/10 00:17:35;;;;;;;14.83;13.60;;;;;;;22.19;47.18;101689.91;5038358;28;20435;-67
2021/06/10 00:20:00;;;;;;;24.30;21.87;;;;;;;21.82;48.04;101680.13;5038191;28;20391;-68
2021/06/10 00:22:26;;;;;;;16.33;14.87;;;;;;;22.07;47.45;101690.19;5040248;28;20201;-66
2021/06/10 00:24:51;;;;;;;15.00;13.70;;;;;;;22.08;47.51;101685.75;5044860;28;20244;-67
2021/06/10 00:27:20;;;;;;;15.07;13.77;;;;;;;22.10;46.75;101687.47;5058150;28;20208;-66
2021/06/10 00:29:47;;;;;;;16.83;15.23;;;;;;;22.03;47.48;101681.41;5057702;28;20255;-66
2021/06/10 00:32:13;;;;;;;20.13;18.00;;;;;;;21.89;48.00;101682.66;5038108;28;20430;-67
2021/06/10 00:34:39;;;;;;;22.20;16.30;;;;;;;21.84;48.62;101685.41;5055406;28;20405;-66
2021/06/10 00:37:05;;;;;;;16.47;15.07;;;;;;;21.40;49.40;101689.84;5058384;28;20383;-66
2021/06/10 00:39:30;;;;;;;17.00;15.50;;;;;;;21.48;49.56;101677.31;5057799;28;20188;-67
2021/06/10 00:41:55;;;;;;;15.40;14.00;;;;;;;21.48;49.41;101675.50;5054307;28;20189;-66
2021/06/10 00:44:21;;;;;;;16.40;15.00;;;;;;;21.56;49.52;101667.44;5055094;28;20189;-66
2021/06/10 00:46:46;;;;;;;17.90;16.30;;;;;;;21.44;49.54;101668.53;5057813;28;20323;-66
2021/06/10 00:49:11;;;;;;;22.53;19.80;;;;;;;21.40;49.66;101668.63;5057813;28;20493;-67
2021/06/10 00:51:38;;;;;;;18.87;16.83;;;;;;;21.02;50.47;101668.50;5043350;28;20568;-66
2021/06/10 00:54:04;;;;;;;16.57;15.17;;;;;;;21.39;49.22;101666.88;5037590;28;20232;-67
2021/06/10 00:56:29;;;;;;;16.60;15.10;;;;;;;21.36;49.24;101663.41;5037797;28;20425;-66
2021/06/10 00:58:55;;;;;;;16.90;15.47;;;;;;;21.15;49.61;101661.19;5043145;28;20185;-67
2021/06/10 01:01:20;;;;;;;17.33;15.83;;;;;;;21.28;49.64;101660.00;5045544;28;20182;-67
2021/06/10 01:03:46;;;;;;;15.30;14.00;;;;;;;21.03;50.63;101670.25;5037033;28;20207;-66
2021/06/10 01:06:25;;;;;;;14.70;13.40;;;;;;;21.07;50.72;101666.63;5039777;28;20232;-66
2021/06/10 01:09:00;;;;;;;15.50;14.10;;;;;;;21.06;50.48;101664.88;5036926;28;20221;-67
2021/06/10 01:11:35;;;;;;;15.47;14.07;;;;;;;20.82;51.42;101660.91;5046449;28;20486;-66
2021/06/10 01:14:19;;;;;;;16.23;14.77;;;;;;;20.76;51.77;101669.84;5040980;28;20406;-66
2021/06/10 01:16:46;;;;;;;15.93;14.43;;;;;;;20.88;51.14;101659.91;5038506;28;20448;-66
2021/06/10 01:19:18;;;;;;;14.80;13.40;;;;;;;20.90;51.18;101663.44;5037352;28;20449;-67
2021/06/10 01:21:44;;;;;;;16.27;14.87;;;;;;;20.45;52.61;101658.88;5037793;28;20436;-67
2021/06/10 01:24:18;;;;;;;15.83;14.53;;;;;;;20.75;51.67;101660.16;5037798;28;21284;-67
2021/06/10 01:26:52;;;;;;;15.80;14.30;;;;;;;20.80;51.50;101658.28;5040269;28;20472;-66
2021/06/10 01:29:18;;;;;;;16.87;15.10;;;;;;;20.76;51.60;101664.56;5057123;28;20461;-67
2021/06/10 01:31:43;;;;;;;16.37;14.87;;;;;;;20.68;51.89;101664.69;5056714;28;20418;-67
2021/06/10 01:34:09;;;;;;;16.37;14.87;;;;;;;20.81;51.47;101664.47;5053113;28;20758;-67
2021/06/10 01:36:37;;;;;;;16.90;15.50;;;;;;;20.75;51.66;101660.16;5039587;28;20177;-66
2021/06/10 01:39:10;;;;;;;16.90;15.50;;;;;;;20.73;51.65;101656.66;5037310;28;20400;-67
2021/06/10 01:41:36;;;;;;;17.00;15.37;;;;;;;20.51;52.38;101656.13;5041372;28;20684;-67
2021/06/10 01:44:02;;;;;;;16.47;14.83;;;;;;;20.51;52.52;101656.13;5056584;28;20469;-67
2021/06/10 01:46:29;;;;;;;17.70;16.10;;;;;;;20.31;53.31;101659.09;5055602;28;20185;-66
2021/06/10 01:48:54;;;;;;;17.13;15.53;;;;;;;20.19;53.57;101650.47;5039100;28;20763;-66
2021/06/10 01:51:24;;;;;;;17.20;15.70;;;;;;;20.45;52.94;101650.94;5036453;28;20445;-67
2021/06/10 01:53:51;;;;;;;16.70;15.20;;;;;;;20.38;52.45;101647.53;5036413;28;20468;-65
2021/06/10 01:56:17;;;;;;;16.17;14.67;;;;;;;20.38;52.43;101646.63;5037691;28;20836;-66
2021/06/10 01:58:44;;;;;;;16.03;14.53;;;;;;;20.14;52.92;101641.72;5037489;28;20423;-66
2021/06/10 02:01:10;;;;;;;15.40;14.00;;;;;;;20.35;52.02;101639.63;5036715;28;20439;-66
2021/06/10 02:03:35;;;;;;;17.00;14.83;;;;;;;20.20;52.02;101635.44;5036754;28;20406;-66
2021/06/10 02:06:02;;;;;;;16.20;14.63;;;;;;;19.94;52.56;101635.88;5039959;28;20228;-67
2021/06/10 02:08:28;;;;;;;15.40;13.93;;;;;;;19.97;52.25;101631.41;5042319;28;20457;-66
2021/06/10 02:10:55;;;;;;;15.40;14.10;;;;;;;20.01;51.65;101632.22;5040417;28;20407;-66
2021/06/10 02:13:29;;;;;;;16.70;15.10;;;;;;;19.96;51.94;101626.16;5055531;28;20453;-66
2021/06/10 02:15:57;;;;;;;14.60;13.37;;;;;;;19.89;52.10;101627.13;5056054;28;20501;-66
2021/06/10 02:18:22;;;;;;;15.27;13.70;;;;;;;19.94;51.96;101627.94;5048046;28;20490;-66
2021/06/10 02:20:47;;;;;;;14.37;12.97;;;;;;;19.85;52.10;101627.16;5040556;28;20431;-66
2021/06/10 02:23:13;;;;;;;16.17;14.60;;;;;;;19.86;52.09;101620.09;5052388;28;20223;-67
2021/06/10 02:25:38;;;;;;;15.37;13.90;;;;;;;19.72;52.28;101622.91;5060187;28;20236;-67
2021/06/10 02:28:05;;;;;;;15.30;13.70;;;;;;;19.82;52.36;101621.94;5051774;28;20254;-66
2021/06/10 02:30:32;;;;;;;15.87;14.47;;;;;;;19.78;52.39;101622.84;5040519;28;20170;-66
2021/06/10 02:32:57;;;;;;;15.60;14.20;;;;;;;19.75;52.04;101622.88;5040311;28;20456;-66
2021/06/10 02:35:23;;;;;;;15.07;13.67;;;;;;;19.47;52.69;101631.19;5040147;28;20666;-67
2021/06/10 02:37:50;;;;;;;14.83;13.40;;;;;;;19.58;52.21;101623.13;5045462;28;20185;-67
2021/06/10 02:40:27;;;;;;;15.13;13.30;;;;;;;19.70;51.96;101624.72;5050560;28;20182;-67
2021/06/10 02:42:54;;;;;;;14.97;13.47;;;;;;;19.83;51.24;101615.72;5039162;28;20446;-67
2021/06/10 02:45:19;;;;;;;15.07;13.67;;;;;;;19.58;51.95;101615.19;5039163;28;20775;-67
2021/06/10 02:47:46;;;;;;;14.00;12.80;;;;;;;19.67;51.87;101622.09;5043559;28;20537;-66
2021/06/10 02:50:16;;;;;;;14.90;13.40;;;;;;;19.92;51.38;101617.38;5040364;28;20417;-67
2021/06/10 02:52:46;;;;;;;13.90;12.70;;;;;;;19.68;52.02;101615.91;5040776;28;20531;-67
2021/06/10 02:55:15;;;;;;;14.90;13.60;;;;;;;19.73;51.73;101619.38;5039075;28;20707;-67
2021/06/10 02:57:48;;;;;;;13.47;12.27;;;;;;;19.50;52.43;101612.63;5042264;28;20445;-66
2021/06/10 03:00:14;;;;;;;14.50;13.10;;;;;;;19.72;52.31;101622.91;5039791;28;20547;-67
2021/06/10 03:02:39;;;;;;;14.07;12.77;;;;;;;19.60;52.41;101615.16;5038796;28;20396;-67
2021/06/10 03:05:06;;;;;;;14.93;13.53;;;;;;;19.47;52.87;101610.03;5039611;28;20445;-67
2021/06/10 03:07:35;;;;;;;14.83;13.63;;;;;;;19.50;52.54;101617.94;5040696;28;20235;-67
2021/06/10 03:10:01;;;;;;;15.60;12.90;;;;;;;19.57;52.96;101617.84;5038737;28;20676;-67
2021/06/10 03:12:26;;;;;;;14.00;12.80;;;;;;;19.45;52.98;101625.03;5038731;28;20444;-66
2021/06/10 03:14:51;;;;;;;14.20;13.00;;;;;;;19.47;52.75;101625.00;5055773;28;20188;-67
2021/06/10 03:17:18;;;;;;;14.77;13.37;;;;;;;19.39;52.86;101625.13;5055166;28;20190;-67
2021/06/10 03:19:43;;;;;;;14.60;13.37;;;;;;;19.35;53.06;101629.59;5058615;28;20174;-66
2021/06/10 03:22:09;;;;;;;15.00;13.23;;;;;;;19.28;52.77;101632.31;5059281;28;20416;-66
2021/06/10 03:24:34;;;;;;;15.40;14.10;;;;;;;19.42;52.58;101634.81;5042770;28;20238;-67
2021/06/10 03:27:00;;;;;;;14.30;13.00;;;;;;;19.70;52.39;101624.72;5040401;28;20224;-67
2021/06/10 03:29:25;;;;;;;14.70;13.40;;;;;;;19.60;52.76;101623.97;5058828;28;20165;-67
2021/06/10 03:31:50;;;;;;;15.33;14.03;;;;;;;19.50;52.33;101617.94;5058806;28;20566;-67
2021/06/10 03:34:18;;;;;;;16.03;14.33;;;;;;;19.51;52.61;101618.78;5045023;28;20548;-67
2021/06/10 03:36:44;;;;;;;14.70;13.37;;;;;;;19.80;52.60;101621.06;5038063;28;20242;-67
2021/06/10 03:39:09;;;;;;;14.47;13.23;;;;;;;20.18;51.06;101618.72;5039224;28;20502;-67
2021/06/10 03:41:35;;;;;;;14.23;13.03;;;;;;;20.43;50.03;101619.19;5038250;28;20682;-67
2021/06/10 03:44:01;;;;;;;14.20;12.90;;;;;;;20.52;50.11;101616.34;5038396;28;20174;-66
2021/06/10 03:46:28;;;;;;;13.70;12.60;;;;;;;20.69;49.47;101621.41;5038691;28;20170;-67
2021/06/10 03:48:53;;;;;;;13.40;12.20;;;;;;;21.45;47.87;101614.56;5041451;28;20415;-66
2021/06/10 03:51:19;;;;;;;13.17;12.07;;;;;;;21.66;47.29;101617.69;5038196;28;20517;-66
2021/06/10 03:53:49;;;;;;;12.40;11.30;;;;;;;21.50;47.37;101607.41;5038627;28;20552;-66
2021/06/10 03:56:14;;;;;;;12.33;11.23;;;;;;;21.50;47.29;101611.81;5038529;28;20421;-65
2021/06/10 03:58:39;;;;;;;13.93;12.73;;;;;;;21.42;48.30;101614.66;5047794;28;20808;-65
2021/06/10 04:01:05;;;;;;;14.07;12.77;;;;;;;21.56;46.95;101613.50;5038701;28;20202;-66
2021/06/10 04:03:30;;;;;;;11.80;10.90;;;;;;;22.08;46.28;101611.41;5038445;28;20191;-66
2021/06/10 04:05:56;;;;;;;13.03;12.03;;;;;;;21.80;47.41;101612.94;5038754;28;20178;-66
2021/06/10 04:08:22;;;;;;;12.00;10.93;;;;;;;22.16;45.99;101612.06;5039886;28;20210;-66
2021/06/10 04:10:47;;;;;;;12.53;11.53;;;;;;;21.84;47.11;101608.44;5043183;28;20442;-67
2021/06/10 04:13:12;;;;;;;12.50;11.40;;;;;;;22.09;46.08;101615.81;5058550;28;20174;-66
2021/06/10 04:15:38;;;;;;;11.80;10.60;;;;;;;22.12;44.91;101608.66;5058263;28;20177;-66
2021/06/10 04:18:04;;;;;;;11.67;10.67;;;;;;;22.44;45.67;101619.38;5052862;28;20197;-66
2021/06/10 04:20:29;;;;;;;11.00;10.00;;;;;;;22.43;44.50;101610.53;5039356;28;20485;-66
2021/06/10 04:22:54;;;;;;;10.80;10.00;;;;;;;21.97;46.65;101619.63;5045029;28;20189;-66
2021/06/10 04:25:20;;;;;;;11.40;10.30;;;;;;;22.15;46.43;101618.28;5037917;28;20596;-66
2021/06/10 04:27:45;;;;;;;10.77;9.87;;;;;;;22.17;46.35;101622.66;5037485;28;20202;-66
2021/06/10 04:30:12;;;;;;;11.27;10.37;;;;;;;22.13;45.13;101615.69;5039406;28;20204;-66
2021/06/10 04:32:38;;;;;;;11.97;10.67;;;;;;;22.84;43.67;101603.25;5038150;28;20206;-66
2021/06/10 04:35:05;;;;;;;11.17;10.10;;;;;;;22.23;45.01;101613.69;5038562;28;20467;-67
2021/06/10 04:37:31;;;;;;;10.90;10.00;;;;;;;22.21;45.22;101618.16;5037832;28;20463;-67
2021/06/10 04:39:57;;;;;;;10.90;10.00;;;;;;;21.95;46.13;101618.81;5039668;28;20448;-67
2021/06/10 04:42:22;;;;;;;11.17;10.20;;;;;;;21.97;46.36;101616.97;5038289;28;20526;-66
2021/06/10 04:44:48;;;;;;;12.50;11.40;;;;;;;21.87;46.90;101624.28;5038018;28;20532;-67
2021/06/10 04:47:13;;;;;;;11.27;10.37;;;;;;;21.58;47.53;101620.53;5038579;28;20216;-67
2021/06/10 04:49:39;;;;;;;10.33;9.50;;;;;;;22.15;46.21;101624.50;5039592;28;20214;-67
2021/06/10 04:52:05;;;;;;;11.97;10.97;;;;;;;21.94;45.96;101625.00;5041371;28;20545;-67
2021/06/10 04:54:30;;;;;;;11.93;10.83;;;;;;;21.81;47.09;101625.31;5037858;28;20436;-66
2021/06/10 04:56:55;;;;;;;11.07;10.03;;;;;;;21.86;46.34;101631.34;5038133;28;20425;-66
2021/06/10 04:59:21;;;;;;;10.80;9.90;;;;;;;21.67;46.09;101635.34;5036992;28;20177;-65
2021/06/10 05:01:46;;;;;;;17.17;12.27;;;;;;;21.66;45.83;101633.59;5040730;28;20421;-66
2021/06/10 05:04:11;;;;;;;10.90;9.90;;;;;;;21.14;46.16;101631.13;5037417;28;20190;-66
2021/06/10 05:06:37;;;;;;;11.27;10.23;;;;;;;21.16;46.63;101631.97;5037703;28;20178;-67
2021/06/10 05:09:03;;;;;;;10.70;9.70;;;;;;;21.92;46.33;101630.38;5039191;28;20226;-68
2021/06/10 05:11:28;;;;;;;12.97;11.87;;;;;;;22.92;43.58;101620.75;5038455;28;20186;-68
2021/06/10 05:13:53;;;;;;;13.07;10.60;;;;;;;21.63;45.33;101629.22;5037687;28;20265;-68
2021/06/10 05:16:18;;;;;;;11.10;10.20;;;;;;;21.71;45.24;101629.06;5037733;28;20209;-67
2021/06/10 05:18:44;;;;;;;11.10;10.00;;;;;;;23.34;41.91;101620.44;5037814;28;20268;-67
2021/06/10 05:21:09;;;;;;;10.50;9.60;;;;;;;23.49;42.57;101613.78;5038900;28;20198;-67
2021/06/10 05:23:36;;;;;;;12.13;10.67;;;;;;;23.79;40.62;101619.97;5040617;28;20185;-66
2021/06/10 05:26:01;;;;;;;9.77;8.87;;;;;;;21.65;45.11;101621.22;5051927;28;20265;-67
2021/06/10 05:28:33;;;;;;;10.00;8.87;;;;;;;21.69;44.83;101621.16;5037942;28;20512;-66
2021/06/10 05:30:59;;;;;;;10.50;9.63;;;;;;;21.72;45.58;101621.97;5037554;28;20173;-66
2021/06/10 05:33:25;;;;;;;10.30;9.30;;;;;;;22.43;42.99;101617.63;5037676;28;20496;-67
2021/06/10 05:35:50;;;;;;;9.70;8.70;;;;;;;22.27;44.30;101625.09;5037251;28;20241;-67
2021/06/10 05:38:16;;;;;;;10.07;9.07;;;;;;;24.02;40.33;101610.41;5050421;28;20519;-67
2021/06/10 05:40:41;;;;;;;9.10;8.20;;;;;;;23.71;40.64;101606.03;5057379;28;20186;-66
2021/06/10 05:43:06;;;;;;;12.60;8.93;;;;;;;23.81;40.66;101604.78;5039978;28;20247;-66
2021/06/10 05:45:32;;;;;;;9.17;8.37;;;;;;;24.94;37.88;101611.69;5039754;28;20178;-66
2021/06/10 05:47:57;;;;;;;9.57;8.67;;;;;;;23.08;41.76;101622.06;5040568;28;20190;-67
2021/06/10 05:50:22;;;;;;;9.40;8.60;;;;;;;24.30;39.44;101613.00;5040885;28;20447;-67
2021/06/10 05:52:48;;;;;;;11.40;10.50;;;;;;;25.65;36.11;101608.13;5040945;28;20174;-67
2021/06/10 05:55:13;;;;;;;9.13;8.43;;;;;;;25.70;35.69;101615.03;5049052;28;20224;-67
2021/06/10 05:57:38;;;;;;;9.80;8.87;;;;;;;24.64;38.38;101616.31;5060567;28;20603;-67
2021/06/10 06:00:07;;;;;;;9.63;8.63;;;;;;;24.57;38.27;101609.44;5060858;28;20496;-68
2021/06/10 06:02:33;;;;;;;8.57;7.87;;;;;;;25.66;37.41;101601.88;5061311;28;20177;-67
2021/06/10 06:04:58;;;;;;;10.17;9.20;;;;;;;26.92;34.43;101600.16;5060610;28;20835;-66
2021/06/10 06:07:23;;;;;;;8.70;7.60;;;;;;;27.63;32.42;101599.53;5041568;28;20257;-68
2021/06/10 06:09:49;;;;;;;9.33;7.47;;;;;;;27.40;32.55;101598.84;5054295;28;20239;-68
2021/06/10 06:12:15;;;;;;;8.23;7.43;;;;;;;26.79;33.81;101603.38;5060358;28;20199;-67
2021/06/10 06:14:43;;;;;;;7.60;7.00;;;;;;;25.87;34.94;101600.09;5060601;28;20169;-66
2021/06/10 06:17:11;;;;;;;7.70;6.50;;;;;;;26.30;34.69;101603.69;5058842;28;20678;-68
2021/06/10 06:19:37;;;;;;;7.07;6.47;;;;;;;26.41;33.90;101605.91;5049305;28;20454;-67
2021/06/10 06:22:04;;;;;;;6.70;6.10;;;;;;;24.02;37.46;101607.75;5059752;28;20408;-67
2021/06/10 06:24:31;;;;;;;5.67;5.20;;;;;;;27.21;31.71;101610.38;5048397;28;20649;-66
2021/06/10 06:26:56;;;;;;;5.90;5.40;;;;;;;26.81;32.20;101606.00;5044989;28;20491;-66
2021/06/10 06:29:22;;;;;;;6.40;5.97;;;;;;;26.83;32.62;101607.66;5059771;28;20869;-66
2021/06/10 06:31:47;;;;;;;10.50;8.03;;;;;;;27.38;31.68;101611.44;5067104;28;20433;-72
2021/06/10 06:34:12;;;;;;;6.30;5.70;;;;;;;27.24;33.18;101620.09;5051569;28;20182;-67
2021/06/10 06:36:38;;;;;;;7.00;6.40;;;;;;;27.32;32.06;101619.69;5055698;28;20466;-66
2021/06/10 06:39:05;;;;;;;7.07;6.20;;;;;;;27.79;32.13;101621.94;5040792;28;20198;-66
2021/06/10 06:41:30;;;;;;;9.33;6.70;;;;;;;28.46;30.46;101610.63;5038848;28;20174;-67
2021/06/10 06:43:55;;;;;;;10.50;6.33;;;;;;;28.92;29.46;101618.09;5049977;28;20490;-69
2021/06/10 06:46:21;;;;;;;7.77;6.83;;;;;;;27.93;31.02;101625.75;5047707;28;20219;-70
2021/06/10 06:48:46;;;;;;;6.90;6.30;;;;;;;29.93;28.93;101618.75;5042425;28;20268;-68
2021/06/10 06:51:11;;;;;;;8.30;6.60;;;;;;;26.70;32.47;101639.44;5041736;28;20495;-68
2021/06/10 06:53:37;;;;;;;7.83;7.13;;;;;;;27.35;31.91;101635.63;5058020;28;20188;-67
2021/06/10 06:56:03;;;;;;;8.17;7.47;;;;;;;25.42;34.80;101639.25;5045240;28;20181;-68
2021/06/10 06:58:29;;;;;;;10.23;7.73;;;;;;;27.90;31.29;101629.44;5051041;28;20513;-67
2021/06/10 07:00:57;;;;;;;7.27;6.67;;;;;;;29.03;29.26;101634.47;5060463;28;20454;-67
2021/06/10 07:03:22;;;;;;;8.60;7.20;;;;;;;29.55;28.51;101628.94;5046979;28;20459;-67
2021/06/10 07:05:48;;;;;;;7.90;7.10;;;;;;;30.05;27.64;101632.38;5050725;28;20819;-69
2021/06/10 07:08:14;;;;;;;9.07;8.13;;;;;;;29.82;28.61;101641.75;5039449;28;20229;-69
2021/06/10 07:10:40;;;;;;;16.10;14.70;;;;;;;30.27;27.48;101640.97;5052847;28;20479;-69
2021/06/10 07:13:05;;;;;;;9.07;8.27;;;;;;;29.38;28.26;101639.75;5043727;28;20780;-67
2021/06/10 07:15:31;;;;;;;9.40;8.43;;;;;;;30.46;27.03;101635.38;5039253;28;20209;-67
2021/06/10 07:17:56;;;;;;;7.53;6.67;;;;;;;29.96;28.22;101646.34;5039139;28;20434;-67
2021/06/10 07:20:22;;;;;;;7.00;6.47;;;;;;;29.42;27.79;101652.06;5040935;28;20198;-67
2021/06/10 07:22:48;;;;;;;8.10;7.40;;;;;;;31.57;23.85;101644.66;5046941;28;20192;-68
2021/06/10 07:25:14;;;;;;;8.00;7.17;;;;;;;29.61;26.62;101646.50;5040654;28;20229;-66
2021/06/10 07:27:41;;;;;;;7.83;7.13;;;;;;;30.84;25.00;101651.91;5057708;28;20197;-67
2021/06/10 07:30:07;;;;;;;10.57;7.17;;;;;;;30.04;26.02;101657.53;5050892;28;20442;-67
2021/06/10 07:32:32;;;;;;;9.40;6.67;;;;;;;30.49;26.11;101654.91;5050434;28;20432;-67
2021/06/10 07:34:58;;;;;;;7.63;6.93;;;;;;;30.21;26.44;101659.19;5052188;28;20454;-67
2021/06/10 07:37:23;;;;;;;9.27;7.10;;;;;;;29.96;27.42;101656.22;5048684;28;20596;-68
2021/06/10 07:39:49;;;;;;;8.50;6.80;;;;;;;30.01;27.06;101659.50;5046434;28;20255;-67
2021/06/10 07:42:14;;;;;;;8.43;7.00;;;;;;;31.27;24.79;101651.06;5053574;28;20201;-67
2021/06/10 07:44:40;;;;;;;11.17;6.90;;;;;;;30.11;26.20;101662.53;5038405;28;20229;-66
2021/06/10 07:47:05;;;;;;;14.93;7.13;;;;;;;30.92;24.88;101656.81;5038612;28;20247;-66
2021/06/10 07:49:33;;;;;;;9.83;6.03;;;;;;;31.35;24.45;101653.25;5039120;28;20184;-65
2021/06/10 07:51:58;;;;;;;9.30;5.93;;;;;;;32.14;22.86;101657.09;5039932;28;20186;-65
2021/06/10 07:54:24;;;;;;;9.30;7.33;;;;;;;32.41;22.64;101653.53;5039443;28;20447;-65
2021/06/10 07:56:49;;;;;;;6.83;6.13;;;;;;;31.22;23.37;101664.81;5038668;28;20543;-66
2021/06/10 07:59:16;;;;;;;9.33;5.80;;;;;;;33.07;21.48;101651.63;5038393;28;20232;-67
2021/06/10 08:01:41;;;;;;;6.57;6.00;;;;;;;31.90;22.72;101656.91;5039760;28;20280;-65
2021/06/10 08:04:06;;;;;;;7.20;5.80;;;;;;;32.45;22.36;101657.75;5041277;28;20532;-65
2021/06/10 08:06:32;;;;;;;8.37;7.53;;;;;;;34.05;20.70;101650.81;5038326;28;20174;-65
2021/06/10 08:08:57;;;;;;;8.10;5.57;;;;;;;32.56;22.35;101657.84;5037381;28;20478;-66
2021/06/10 08:11:23;;;;;;;6.90;5.73;;;;;;;32.41;22.58;101661.63;5039240;28;20487;-65
2021/06/10 08:13:48;;;;;;;11.47;8.97;;;;;;;34.80;20.02;101659.53;5053804;28;20184;-66
2021/06/10 08:16:14;;;;;;;14.10;9.20;;;;;;;34.43;21.82;101662.41;5040429;28;20190;-64
2021/06/10 08:18:39;;;;;;;7.27;6.50;;;;;;;32.82;22.46;101663.31;5038237;28;20548;-66
2021/06/10 08:21:05;;;;;;;13.10;8.10;;;;;;;31.51;24.53;101670.16;5037627;28;20178;-65
2021/06/10 08:23:31;;;;;;;7.90;7.20;;;;;;;32.31;23.61;101658.66;5048935;28;20196;-67
2021/06/10 08:25:59;;;;;;;7.70;7.00;;;;;;;31.49;24.74;101671.25;5045593;28;20599;-66
2021/06/10 08:28:25;;;;;;;7.27;6.73;;;;;;;32.79;23.12;101666.22;5038096;28;20483;-67
2021/06/10 08:30:50;;;;;;;7.10;6.50;;;;;;;33.63;22.09;101663.00;5037631;28;20452;-67
2021/06/10 08:33:17;;;;;;;7.17;6.63;;;;;;;33.12;22.72;101664.78;5038919;28;20231;-67
2021/06/10 08:35:42;;;;;;;6.83;6.33;;;;;;;34.05;22.33;101658.09;5052853;28;20200;-67
2021/06/10 08:38:09;;;;;;;6.87;6.23;;;;;;;33.35;22.51;101667.72;5044397;28;20546;-67
2021/06/10 08:40:36;;;;;;;7.73;7.10;;;;;;;34.35;21.26;101665.72;5045826;28;20460;-68
2021/06/10 08:43:02;;;;;;;9.57;8.77;;;;;;;33.39;23.09;101671.91;5044133;28;20454;-67
2021/06/10 08:45:28;;;;;;;8.17;6.80;;;;;;;32.81;23.73;101663.41;5039833;28;20452;-67
2021/06/10 08:47:54;;;;;;;9.47;7.30;;;;;;;32.21;24.71;101662.97;5052087;28;20447;-66
2021/06/10 08:50:24;;;;;;;8.60;7.80;;;;;;;32.67;23.22;101664.34;5046963;28;20464;-67
2021/06/10 08:52:51;;;;;;;9.30;8.60;;;;;;;31.45;24.50;101661.63;5043947;28;20205;-68
2021/06/10 08:55:16;;;;;;;8.53;7.70;;;;;;;33.71;22.54;101661.44;5047829;28;20699;-66
2021/06/10 08:57:42;;;;;;;12.47;7.77;;;;;;;33.57;23.32;101659.78;5036977;28;20455;-65
2021/06/10 09:00:10;;;;;;;8.20;7.50;;;;;;;33.71;23.20;101656.03;5045673;28;20190;-66
2021/06/10 09:02:36;;;;;;;8.27;7.57;;;;;;;33.13;23.96;101658.44;5055590;28;20230;-66
2021/06/10 09:05:07;;;;;;;9.03;8.23;;;;;;;34.50;22.05;101658.25;5054906;28;20744;-65
2021/06/10 09:07:37;;;;;;;8.47;7.87;;;;;;;32.44;24.41;101658.72;5057076;28;20253;-66
2021/06/10 09:10:05;;;;;;;8.00;7.40;;;;;;;32.20;24.51;101659.41;5047584;28;20539;-66
2021/06/10 09:12:37;;;;;;;10.07;9.30;;;;;;;32.20;24.70;101654.00;5039449;28;20543;-65
2021/06/10 09:15:06;;;;;;;8.83;8.13;;;;;;;33.73;23.04;101650.50;5039965;28;20428;-65
2021/06/10 09:17:36;;;;;;;10.30;9.40;;;;;;;33.86;23.44;101651.34;5041461;28;20424;-66
2021/06/10 09:20:03;;;;;;;10.60;8.00;;;;;;;32.13;25.83;101655.38;5041606;28;20416;-66
2021/06/10 09:22:35;;;;;;;9.80;8.90;;;;;;;30.59;27.92;101668.66;5039777;28;20487;-66
2021/06/10 09:25:14;;;;;;;10.50;9.50;;;;;;;30.49;28.00;101657.59;5047140;28;20873;-66
2021/06/10 09:27:53;;;;;;;10.70;9.90;;;;;;;30.86;27.58;101652.66;5054348;28;20518;-66
2021/06/10 09:30:34;;;;;;;11.50;10.37;;;;;;;32.90;24.90;101644.72;5061095;28;20441;-65
2021/06/10 09:33:01;;;;;;;9.70;8.93;;;;;;;32.64;25.12;101646.53;5049342;28;20822;-65
2021/06/10 09:35:28;;;;;;;10.17;9.30;;;;;;;32.16;26.06;101644.38;5071273;28;20476;-65
2021/06/10 09:38:02;;;;;;;10.13;9.33;;;;;;;33.26;24.28;101642.25;5049870;28;20502;-66
2021/06/10 09:40:30;;;;;;;9.47;8.67;;;;;;;33.54;24.99;101643.78;5048490;28;20454;-66
2021/06/10 09:42:56;;;;;;;10.70;9.60;;;;;;;32.68;25.12;101644.50;5060645;28;20801;-67
2021/06/10 09:45:26;;;;;;;9.87;8.97;;;;;;;33.38;24.67;101637.75;5060805;28;20431;-67
2021/06/10 09:47:53;;;;;;;9.83;9.03;;;;;;;32.69;25.64;101646.19;5042457;28;20464;-66
2021/06/10 09:50:32;;;;;;;8.73;8.03;;;;;;;33.55;24.58;101639.22;5041298;28;20460;-66
2021/06/10 09:53:06;;;;;;;9.33;8.53;;;;;;;34.37;23.10;101634.00;5048778;28;20447;-66
2021/06/10 09:55:51;;;;;;;10.37;9.67;;;;;;;32.55;25.40;101644.47;5045951;28;20500;-67
2021/06/10 09:58:16;;;;;;;9.67;8.87;;;;;;;34.42;23.64;101644.44;5041310;28;20439;-67
2021/06/10 10:00:48;;;;;;;11.50;10.60;;;;;;;29.55;28.50;101646.84;5060474;28;20412;-67
2021/06/10 10:03:41;;;;;;;10.70;9.77;;;;;;;31.73;26.54;101642.72;5059831;28;20170;-67
2021/06/10 10:06:16;;;;;;;10.70;9.70;;;;;;;31.95;25.28;101637.72;5047512;28;20460;-67
2021/06/10 10:08:42;;;;;;;9.70;8.90;;;;;;;31.93;26.04;101634.28;5054509;28;20510;-67
2021/06/10 10:11:07;;;;;;;10.27;9.57;;;;;;;32.22;26.30;101641.28;5035424;28;20484;-68
2021/06/10 10:13:33;;;;;;;7.83;7.27;;;;;;;32.83;25.80;101637.19;5046777;28;20264;-68
2021/06/10 10:16:03;;;;;;;8.70;7.73;;;;;;;33.94;25.17;101644.50;5052445;28;20605;-69
2021/06/10 10:18:29;;;;;;;10.40;9.60;;;;;;;33.77;24.51;101637.63;5045716;28;20273;-69
2021/06/10 10:20:58;;;;;;;11.50;10.60;;;;;;;33.81;23.63;101645.41;5043223;28;20540;-68
2021/06/10 10:23:23;;;;;;;10.07;9.23;;;;;;;33.39;25.08;101634.94;5041657;28;20555;-69
2021/06/10 10:25:51;;;;;;;9.27;8.47;;;;;;;32.58;25.53;101645.13;5037947;28;20461;-68
2021/06/10 10:28:17;;;;;;;9.80;9.10;;;;;;;32.00;26.14;101635.56;5039998;28;20210;-68
2021/06/10 10:30:44;;;;;;;10.17;9.30;;;;;;;33.21;24.68;101637.13;5040175;28;20440;-69
2021/06/10 10:33:17;;;;;;;13.07;12.00;;;;;;;31.64;26.29;101635.22;5050126;28;20213;-68
2021/06/10 10:35:54;;;;;;;11.97;10.97;;;;;;;31.93;26.12;101642.38;5053143;28;20443;-68
2021/06/10 10:38:28;;;;;;;11.00;10.10;;;;;;;31.67;26.31;101639.56;5057186;28;20889;-68
2021/06/10 10:40:57;;;;;;;10.93;10.13;;;;;;;30.88;27.27;101639.97;5059634;28;20427;-67
2021/06/10 10:43:23;;;;;;;9.50;8.70;;;;;;;32.44;25.11;101639.81;5055830;28;20439;-68
2021/06/10 10:45:51;;;;;;;11.00;9.90;;;;;;;32.57;24.89;101638.00;5038417;28;20523;-68
2021/06/10 10:48:31;;;;;;;10.30;9.40;;;;;;;32.28;25.48;101631.91;5039549;28;20464;-67
2021/06/10 10:50:56;;;;;;;11.43;10.33;;;;;;;32.10;26.10;101625.91;5046176;28;20799;-67
2021/06/10 10:53:23;;;;;;;9.67;8.67;;;;;;;32.81;25.17;101629.16;5042878;28;20548;-67
2021/06/10 10:56:10;;;;;;;10.90;9.93;;;;;;;32.61;25.44;101626.97;5040356;28;20187;-69
2021/06/10 10:58:38;;;;;;;10.50;9.50;;;;;;;31.67;26.22;101631.47;5049040;28;20464;-66
2021/06/10 11:01:10;;;;;;;9.40;8.60;;;;;;;31.38;26.58;101627.00;5046725;28;20433;-64
2021/06/10 11:03:41;;;;;;;8.50;7.80;;;;;;;31.89;26.34;101631.78;5046281;28;20435;-66
2021/06/10 11:06:22;;;;;;;8.90;8.00;;;;;;;31.24;27.59;101629.69;5057188;28;20462;-68
2021/06/10 11:09:20;;;;;;;9.40;8.60;;;;;;;30.81;27.43;101627.88;5040792;28;20490;-65
2021/06/10 11:11:59;;;;;;;10.77;9.87;;;;;;;31.30;27.71;101632.00;5043118;28;20444;-65
2021/06/10 11:14:42;;;;;;;10.77;9.77;;;;;;;31.30;27.19;101633.81;5040784;28;20493;-65
2021/06/10 11:17:32;;;;;;;11.83;10.80;;;;;;;30.60;28.03;101631.88;5051572;28;20448;-63